sensor_id;sensor_type;location;lat;lon;timestamp;P1;durP1;ratioP1;P2;durP2;ratioP2
57441;SDS011;43284;47.042;15.498;2023-04-03T00:01:09;1.55;;;1.05;;
57441;SDS011;43284;47.042;15.498;2023-04-03T00:03:35;1.23;;;1.13;;
57441;SDS011;43284;47.042;15.498;2023-04-03T00:06:01;2.80;;;1.20;;
57441;SDS011;43284;47.042;15.498;2023-04-03T00:08:28;2.45;;;1.40;;
57441;SDS011;43284;47.042;15.498;2023-04-03T00:10:55;1.77;;;1.02;;
57441;SDS011;43284;47.042;15.498;2023-04-03T00:13:22;2.15;;;1.48;;
57441;SDS011;43284;47.042;15.498;2023-04-03T00:15:48;1.48;;;0.90;;
57441;SDS011;43284;47.042;15.498;2023-04-03T00:18:13;1.13;;;1.02;;
57441;SDS011;43284;47.042;15.498;2023-04-03T00:20:39;1.50;;;1.05;;
57441;SDS011;43284;47.042;15.498;2023-04-03T00:23:04;3.53;;;1.20;;
57441;SDS011;43284;47.042;15.498;2023-04-03T00:25:30;2.05;;;1.15;;
57441;SDS011;43284;47.042;15.498;2023-04-03T00:27:56;1.80;;;1.33;;
57441;SDS011;43284;47.042;15.498;2023-04-03T00:30:21;2.08;;;1.27;;
57441;SDS011;43284;47.042;15.498;2023-04-03T00:32:48;2.38;;;1.33;;
57441;SDS011;43284;47.042;15.498;2023-04-03T00:35:14;1.40;;;1.15;;
57441;SDS011;43284;47.042;15.498;2023-04-03T00:37:43;2.15;;;1.50;;
57441;SDS011;43284;47.042;15.498;2023-04-03T00:40:09;2.15;;;1.20;;
57441;SDS011;43284;47.042;15.498;2023-04-03T00:42:37;3.85;;;1.42;;
57441;SDS011;43284;47.042;15.498;2023-04-03T00:47:28;1.10;;;1.00;;
57441;SDS011;43284;47.042;15.498;2023-04-03T00:49:55;1.40;;;1.00;;
57441;SDS011;43284;47.042;15.498;2023-04-03T00:52:23;2.17;;;1.33;;
57441;SDS011;43284;47.042;15.498;2023-04-03T00:54:53;2.05;;;1.38;;
57441;SDS011;43284;47.042;15.498;2023-04-03T00:57:23;1.45;;;1.17;;
57441;SDS011;43284;47.042;15.498;2023-04-03T00:59:50;3.08;;;1.65;;
57441;SDS011;43284;47.042;15.498;2023-04-03T01:02:20;1.73;;;1.20;;
57441;SDS011;43284;47.042;15.498;2023-04-03T01:04:46;2.85;;;1.33;;
57441;SDS011;43284;47.042;15.498;2023-04-03T01:07:14;2.80;;;1.50;;
57441;SDS011;43284;47.042;15.498;2023-04-03T01:09:42;2.88;;;1.33;;
57441;SDS011;43284;47.042;15.498;2023-04-03T01:12:30;2.20;;;1.38;;
57441;SDS011;43284;47.042;15.498;2023-04-03T01:14:58;3.10;;;1.20;;
57441;SDS011;43284;47.042;15.498;2023-04-03T01:25:38;2.38;;;1.30;;
57441;SDS011;43284;47.042;15.498;2023-04-03T01:28:28;1.42;;;1.17;;
57441;SDS011;43284;47.042;15.498;2023-04-03T01:33:43;2.67;;;1.33;;
57441;SDS011;43284;47.042;15.498;2023-04-03T01:36:10;3.08;;;1.67;;
57441;SDS011;43284;47.042;15.498;2023-04-03T01:38:40;1.63;;;1.20;;
57441;SDS011;43284;47.042;15.498;2023-04-03T01:41:06;2.83;;;1.20;;
57441;SDS011;43284;47.042;15.498;2023-04-03T01:43:31;2.17;;;1.35;;
57441;SDS011;43284;47.042;15.498;2023-04-03T01:45:57;3.47;;;1.58;;
57441;SDS011;43284;47.042;15.498;2023-04-03T01:48:22;1.50;;;1.13;;
57441;SDS011;43284;47.042;15.498;2023-04-03T01:50:48;2.33;;;1.20;;
57441;SDS011;43284;47.042;15.498;2023-04-03T01:53:13;2.17;;;1.48;;
57441;SDS011;43284;47.042;15.498;2023-04-03T01:55:39;2.58;;;1.13;;
57441;SDS011;43284;47.042;15.498;2023-04-03T01:58:05;1.83;;;1.17;;
57441;SDS011;43284;47.042;15.498;2023-04-03T02:00:30;1.60;;;1.10;;
57441;SDS011;43284;47.042;15.498;2023-04-03T02:02:56;2.70;;;1.40;;
57441;SDS011;43284;47.042;15.498;2023-04-03T02:05:22;2.95;;;1.58;;
57441;SDS011;43284;47.042;15.498;2023-04-03T02:07:47;1.85;;;1.23;;
57441;SDS011;43284;47.042;15.498;2023-04-03T02:10:13;2.22;;;1.25;;
57441;SDS011;43284;47.042;15.498;2023-04-03T02:12:39;2.45;;;1.17;;
57441;SDS011;43284;47.042;15.498;2023-04-03T02:15:05;2.85;;;1.48;;
57441;SDS011;43284;47.042;15.498;2023-04-03T02:17:31;2.03;;;1.40;;
57441;SDS011;43284;47.042;15.498;2023-04-03T02:19:56;1.40;;;1.25;;
57441;SDS011;43284;47.042;15.498;2023-04-03T02:22:22;2.42;;;1.35;;
57441;SDS011;43284;47.042;15.498;2023-04-03T02:24:47;3.10;;;1.52;;
57441;SDS011;43284;47.042;15.498;2023-04-03T02:27:13;1.65;;;1.10;;
57441;SDS011;43284;47.042;15.498;2023-04-03T02:29:38;1.63;;;1.20;;
57441;SDS011;43284;47.042;15.498;2023-04-03T02:32:04;2.83;;;1.38;;
57441;SDS011;43284;47.042;15.498;2023-04-03T02:34:30;1.17;;;1.00;;
57441;SDS011;43284;47.042;15.498;2023-04-03T02:36:55;3.33;;;1.35;;
57441;SDS011;43284;47.042;15.498;2023-04-03T02:39:21;1.23;;;1.10;;
57441;SDS011;43284;47.042;15.498;2023-04-03T02:41:46;2.55;;;1.13;;
57441;SDS011;43284;47.042;15.498;2023-04-03T02:44:12;2.08;;;1.13;;
57441;SDS011;43284;47.042;15.498;2023-04-03T02:46:38;2.17;;;1.33;;
57441;SDS011;43284;47.042;15.498;2023-04-03T02:49:04;2.50;;;1.40;;
57441;SDS011;43284;47.042;15.498;2023-04-03T02:51:29;1.85;;;1.13;;
57441;SDS011;43284;47.042;15.498;2023-04-03T02:53:55;1.25;;;0.90;;
57441;SDS011;43284;47.042;15.498;2023-04-03T02:56:21;2.20;;;1.20;;
57441;SDS011;43284;47.042;15.498;2023-04-03T02:58:46;1.80;;;1.10;;
57441;SDS011;43284;47.042;15.498;2023-04-03T03:01:12;1.90;;;1.13;;
57441;SDS011;43284;47.042;15.498;2023-04-03T03:03:38;1.50;;;1.05;;
57441;SDS011;43284;47.042;15.498;2023-04-03T03:06:04;1.80;;;1.20;;
57441;SDS011;43284;47.042;15.498;2023-04-03T03:08:35;1.13;;;0.90;;
57441;SDS011;43284;47.042;15.498;2023-04-03T03:11:01;2.10;;;0.93;;
57441;SDS011;43284;47.042;15.498;2023-04-03T03:13:27;1.83;;;1.30;;
57441;SDS011;43284;47.042;15.498;2023-04-03T03:15:53;2.70;;;1.20;;
57441;SDS011;43284;47.042;15.498;2023-04-03T03:18:19;0.77;;;0.77;;
57441;SDS011;43284;47.042;15.498;2023-04-03T03:20:45;1.20;;;1.10;;
57441;SDS011;43284;47.042;15.498;2023-04-03T03:23:10;1.70;;;1.05;;
57441;SDS011;43284;47.042;15.498;2023-04-03T03:25:39;1.55;;;1.23;;
57441;SDS011;43284;47.042;15.498;2023-04-03T03:28:06;1.90;;;1.20;;
57441;SDS011;43284;47.042;15.498;2023-04-03T03:30:32;1.55;;;1.25;;
57441;SDS011;43284;47.042;15.498;2023-04-03T03:32:58;1.52;;;1.30;;
57441;SDS011;43284;47.042;15.498;2023-04-03T03:35:24;1.98;;;1.08;;
57441;SDS011;43284;47.042;15.498;2023-04-03T03:37:49;1.70;;;1.23;;
57441;SDS011;43284;47.042;15.498;2023-04-03T03:40:15;3.22;;;1.08;;
57441;SDS011;43284;47.042;15.498;2023-04-03T03:42:41;2.38;;;1.08;;
57441;SDS011;43284;47.042;15.498;2023-04-03T03:45:06;3.03;;;1.27;;
57441;SDS011;43284;47.042;15.498;2023-04-03T03:47:32;1.55;;;1.10;;
57441;SDS011;43284;47.042;15.498;2023-04-03T03:49:58;2.75;;;1.33;;
57441;SDS011;43284;47.042;15.498;2023-04-03T03:52:24;1.52;;;0.90;;
57441;SDS011;43284;47.042;15.498;2023-04-03T03:54:49;0.90;;;0.80;;
57441;SDS011;43284;47.042;15.498;2023-04-03T03:57:15;3.50;;;1.17;;
57441;SDS011;43284;47.042;15.498;2023-04-03T03:59:41;1.55;;;0.90;;
57441;SDS011;43284;47.042;15.498;2023-04-03T04:02:07;1.88;;;0.98;;
57441;SDS011;43284;47.042;15.498;2023-04-03T04:04:33;1.35;;;0.82;;
57441;SDS011;43284;47.042;15.498;2023-04-03T04:06:58;1.58;;;0.82;;
57441;SDS011;43284;47.042;15.498;2023-04-03T04:09:25;0.80;;;0.70;;
57441;SDS011;43284;47.042;15.498;2023-04-03T04:11:51;1.10;;;0.90;;
57441;SDS011;43284;47.042;15.498;2023-04-03T04:14:17;0.85;;;0.80;;
57441;SDS011;43284;47.042;15.498;2023-04-03T04:16:43;0.88;;;0.70;;
57441;SDS011;43284;47.042;15.498;2023-04-03T04:19:08;2.58;;;0.90;;
57441;SDS011;43284;47.042;15.498;2023-04-03T04:21:34;1.27;;;0.70;;
57441;SDS011;43284;47.042;15.498;2023-04-03T04:24:00;1.55;;;0.88;;
57441;SDS011;43284;47.042;15.498;2023-04-03T04:26:26;1.25;;;0.90;;
57441;SDS011;43284;47.042;15.498;2023-04-03T04:28:51;0.98;;;0.82;;
57441;SDS011;43284;47.042;15.498;2023-04-03T04:31:17;1.30;;;0.80;;
57441;SDS011;43284;47.042;15.498;2023-04-03T04:33:42;0.70;;;0.70;;
57441;SDS011;43284;47.042;15.498;2023-04-03T04:36:07;2.88;;;0.88;;
57441;SDS011;43284;47.042;15.498;2023-04-03T04:38:33;0.73;;;0.70;;
57441;SDS011;43284;47.042;15.498;2023-04-03T04:40:58;0.70;;;0.70;;
57441;SDS011;43284;47.042;15.498;2023-04-03T04:43:24;0.70;;;0.63;;
57441;SDS011;43284;47.042;15.498;2023-04-03T04:45:59;1.88;;;0.75;;
57441;SDS011;43284;47.042;15.498;2023-04-03T04:48:29;1.60;;;0.75;;
57441;SDS011;43284;47.042;15.498;2023-04-03T04:50:54;1.00;;;0.77;;
57441;SDS011;43284;47.042;15.498;2023-04-03T04:53:20;1.50;;;0.77;;
57441;SDS011;43284;47.042;15.498;2023-04-03T04:55:45;1.98;;;1.40;;
57441;SDS011;43284;47.042;15.498;2023-04-03T04:58:11;1.67;;;0.90;;
57441;SDS011;43284;47.042;15.498;2023-04-03T05:00:36;0.70;;;0.70;;
57441;SDS011;43284;47.042;15.498;2023-04-03T05:03:02;1.52;;;1.00;;
57441;SDS011;43284;47.042;15.498;2023-04-03T05:05:27;1.48;;;0.80;;
57441;SDS011;43284;47.042;15.498;2023-04-03T05:07:53;1.20;;;0.88;;
57441;SDS011;43284;47.042;15.498;2023-04-03T05:10:18;2.92;;;1.10;;
57441;SDS011;43284;47.042;15.498;2023-04-03T05:12:44;0.70;;;0.70;;
57441;SDS011;43284;47.042;15.498;2023-04-03T05:15:09;1.27;;;0.80;;
57441;SDS011;43284;47.042;15.498;2023-04-03T05:17:35;3.10;;;0.75;;
57441;SDS011;43284;47.042;15.498;2023-04-03T05:20:01;1.75;;;0.80;;
57441;SDS011;43284;47.042;15.498;2023-04-03T05:22:28;1.13;;;0.93;;
57441;SDS011;43284;47.042;15.498;2023-04-03T05:24:54;1.10;;;0.73;;
57441;SDS011;43284;47.042;15.498;2023-04-03T05:27:19;1.58;;;0.82;;
57441;SDS011;43284;47.042;15.498;2023-04-03T05:29:45;0.80;;;0.80;;
57441;SDS011;43284;47.042;15.498;2023-04-03T05:32:11;1.13;;;0.65;;
57441;SDS011;43284;47.042;15.498;2023-04-03T05:34:36;1.85;;;0.80;;
57441;SDS011;43284;47.042;15.498;2023-04-03T05:37:02;2.70;;;1.02;;
57441;SDS011;43284;47.042;15.498;2023-04-03T05:39:29;4.15;;;1.40;;
57441;SDS011;43284;47.042;15.498;2023-04-03T05:41:56;2.00;;;1.30;;
57441;SDS011;43284;47.042;15.498;2023-04-03T05:44:22;2.03;;;1.20;;
57441;SDS011;43284;47.042;15.498;2023-04-03T05:46:47;1.83;;;0.85;;
57441;SDS011;43284;47.042;15.498;2023-04-03T05:49:13;1.80;;;0.90;;
57441;SDS011;43284;47.042;15.498;2023-04-03T05:51:39;1.10;;;0.98;;
57441;SDS011;43284;47.042;15.498;2023-04-03T05:56:36;2.08;;;0.95;;
57441;SDS011;43284;47.042;15.498;2023-04-03T05:59:02;1.77;;;1.02;;
57441;SDS011;43284;47.042;15.498;2023-04-03T06:01:27;1.65;;;1.00;;
57441;SDS011;43284;47.042;15.498;2023-04-03T06:03:53;0.93;;;0.82;;
57441;SDS011;43284;47.042;15.498;2023-04-03T06:06:19;0.82;;;0.73;;
57441;SDS011;43284;47.042;15.498;2023-04-03T06:08:45;0.70;;;0.70;;
57441;SDS011;43284;47.042;15.498;2023-04-03T06:11:11;0.82;;;0.60;;
57441;SDS011;43284;47.042;15.498;2023-04-03T06:13:36;1.45;;;0.88;;
57441;SDS011;43284;47.042;15.498;2023-04-03T06:16:02;3.13;;;1.10;;
57441;SDS011;43284;47.042;15.498;2023-04-03T06:18:28;1.73;;;0.77;;
57441;SDS011;43284;47.042;15.498;2023-04-03T06:20:55;1.50;;;0.82;;
57441;SDS011;43284;47.042;15.498;2023-04-03T06:23:20;2.67;;;0.88;;
57441;SDS011;43284;47.042;15.498;2023-04-03T06:25:46;0.88;;;0.85;;
57441;SDS011;43284;47.042;15.498;2023-04-03T06:28:12;3.08;;;0.90;;
57441;SDS011;43284;47.042;15.498;2023-04-03T06:30:37;1.48;;;0.98;;
57441;SDS011;43284;47.042;15.498;2023-04-03T06:33:03;2.17;;;0.68;;
57441;SDS011;43284;47.042;15.498;2023-04-03T06:35:28;1.02;;;0.70;;
57441;SDS011;43284;47.042;15.498;2023-04-03T06:37:55;1.83;;;0.80;;
57441;SDS011;43284;47.042;15.498;2023-04-03T06:40:22;1.25;;;1.00;;
57441;SDS011;43284;47.042;15.498;2023-04-03T06:42:51;1.55;;;1.02;;
57441;SDS011;43284;47.042;15.498;2023-04-03T06:45:16;1.13;;;0.70;;
57441;SDS011;43284;47.042;15.498;2023-04-03T06:47:42;1.40;;;0.75;;
57441;SDS011;43284;47.042;15.498;2023-04-03T06:50:09;1.17;;;0.65;;
57441;SDS011;43284;47.042;15.498;2023-04-03T06:52:36;1.70;;;0.90;;
57441;SDS011;43284;47.042;15.498;2023-04-03T06:55:02;1.75;;;0.98;;
57441;SDS011;43284;47.042;15.498;2023-04-03T06:57:29;1.23;;;0.70;;
57441;SDS011;43284;47.042;15.498;2023-04-03T06:59:54;1.00;;;0.60;;
57441;SDS011;43284;47.042;15.498;2023-04-03T07:02:20;1.42;;;0.88;;
57441;SDS011;43284;47.042;15.498;2023-04-03T07:04:46;1.92;;;1.00;;
57441;SDS011;43284;47.042;15.498;2023-04-03T07:07:12;1.75;;;0.82;;
57441;SDS011;43284;47.042;15.498;2023-04-03T07:09:37;1.95;;;1.02;;
57441;SDS011;43284;47.042;15.498;2023-04-03T07:12:03;1.33;;;0.77;;
57441;SDS011;43284;47.042;15.498;2023-04-03T07:14:28;2.40;;;0.73;;
57441;SDS011;43284;47.042;15.498;2023-04-03T07:16:54;1.85;;;0.90;;
57441;SDS011;43284;47.042;15.498;2023-04-03T07:19:19;0.98;;;0.73;;
57441;SDS011;43284;47.042;15.498;2023-04-03T07:21:46;0.90;;;0.68;;
57441;SDS011;43284;47.042;15.498;2023-04-03T07:24:12;0.88;;;0.73;;
57441;SDS011;43284;47.042;15.498;2023-04-03T07:26:37;1.33;;;1.23;;
57441;SDS011;43284;47.042;15.498;2023-04-03T07:29:03;2.65;;;0.98;;
57441;SDS011;43284;47.042;15.498;2023-04-03T07:31:29;1.48;;;0.70;;
57441;SDS011;43284;47.042;15.498;2023-04-03T07:33:54;0.93;;;0.68;;
57441;SDS011;43284;47.042;15.498;2023-04-03T07:36:21;2.35;;;0.68;;
57441;SDS011;43284;47.042;15.498;2023-04-03T07:38:47;0.65;;;0.65;;
57441;SDS011;43284;47.042;15.498;2023-04-03T07:41:14;2.25;;;0.90;;
57441;SDS011;43284;47.042;15.498;2023-04-03T07:43:42;0.68;;;0.68;;
57441;SDS011;43284;47.042;15.498;2023-04-03T07:46:08;0.73;;;0.70;;
57441;SDS011;43284;47.042;15.498;2023-04-03T07:48:34;2.38;;;0.90;;
57441;SDS011;43284;47.042;15.498;2023-04-03T07:51:00;1.48;;;0.65;;
57441;SDS011;43284;47.042;15.498;2023-04-03T07:53:27;1.02;;;0.75;;
57441;SDS011;43284;47.042;15.498;2023-04-03T07:55:53;2.15;;;0.65;;
57441;SDS011;43284;47.042;15.498;2023-04-03T07:58:21;0.65;;;0.60;;
57441;SDS011;43284;47.042;15.498;2023-04-03T08:00:46;1.77;;;0.75;;
57441;SDS011;43284;47.042;15.498;2023-04-03T08:03:13;0.80;;;0.60;;
57441;SDS011;43284;47.042;15.498;2023-04-03T08:05:40;1.70;;;0.75;;
57441;SDS011;43284;47.042;15.498;2023-04-03T08:08:07;1.02;;;0.80;;
57441;SDS011;43284;47.042;15.498;2023-04-03T08:10:33;0.73;;;0.65;;
57441;SDS011;43284;47.042;15.498;2023-04-03T08:12:59;1.10;;;0.80;;
57441;SDS011;43284;47.042;15.498;2023-04-03T08:15:25;1.90;;;0.65;;
57441;SDS011;43284;47.042;15.498;2023-04-03T08:17:51;1.10;;;0.70;;
57441;SDS011;43284;47.042;15.498;2023-04-03T08:20:17;1.15;;;0.80;;
57441;SDS011;43284;47.042;15.498;2023-04-03T08:22:43;1.80;;;0.80;;
57441;SDS011;43284;47.042;15.498;2023-04-03T08:25:09;1.52;;;0.80;;
57441;SDS011;43284;47.042;15.498;2023-04-03T08:27:34;1.38;;;0.70;;
57441;SDS011;43284;47.042;15.498;2023-04-03T08:30:00;0.98;;;0.82;;
57441;SDS011;43284;47.042;15.498;2023-04-03T08:32:26;0.90;;;0.70;;
57441;SDS011;43284;47.042;15.498;2023-04-03T08:34:52;1.85;;;0.77;;
57441;SDS011;43284;47.042;15.498;2023-04-03T08:37:18;2.03;;;0.68;;
57441;SDS011;43284;47.042;15.498;2023-04-03T08:39:44;1.25;;;1.00;;
57441;SDS011;43284;47.042;15.498;2023-04-03T08:42:19;1.27;;;0.75;;
57441;SDS011;43284;47.042;15.498;2023-04-03T08:45:02;1.60;;;0.73;;
57441;SDS011;43284;47.042;15.498;2023-04-03T08:50:20;0.65;;;0.60;;
57441;SDS011;43284;47.042;15.498;2023-04-03T08:52:52;1.33;;;0.70;;
57441;SDS011;43284;47.042;15.498;2023-04-03T08:55:25;1.65;;;0.68;;
57441;SDS011;43284;47.042;15.498;2023-04-03T08:58:09;0.70;;;0.63;;
57441;SDS011;43284;47.042;15.498;2023-04-03T09:00:40;0.93;;;0.70;;
57441;SDS011;43284;47.042;15.498;2023-04-03T09:05:49;1.48;;;0.88;;
57441;SDS011;43284;47.042;15.498;2023-04-03T09:08:23;2.90;;;0.70;;
57441;SDS011;43284;47.042;15.498;2023-04-03T09:10:55;1.15;;;0.80;;
57441;SDS011;43284;47.042;15.498;2023-04-03T09:16:27;2.25;;;0.88;;
57441;SDS011;43284;47.042;15.498;2023-04-03T09:22:02;1.50;;;0.68;;
57441;SDS011;43284;47.042;15.498;2023-04-03T09:24:39;0.70;;;0.65;;
57441;SDS011;43284;47.042;15.498;2023-04-03T09:27:06;0.82;;;0.52;;
57441;SDS011;43284;47.042;15.498;2023-04-03T09:29:37;0.65;;;0.60;;
57441;SDS011;43284;47.042;15.498;2023-04-03T09:32:19;1.00;;;0.75;;
57441;SDS011;43284;47.042;15.498;2023-04-03T09:34:50;0.60;;;0.47;;
57441;SDS011;43284;47.042;15.498;2023-04-03T09:37:40;1.20;;;0.60;;
57441;SDS011;43284;47.042;15.498;2023-04-03T09:40:27;0.50;;;0.50;;
57441;SDS011;43284;47.042;15.498;2023-04-03T09:43:19;0.98;;;0.60;;
57441;SDS011;43284;47.042;15.498;2023-04-03T09:45:42;1.40;;;0.90;;
57441;SDS011;43284;47.042;15.498;2023-04-03T09:48:15;0.70;;;0.60;;
57441;SDS011;43284;47.042;15.498;2023-04-03T09:50:56;0.60;;;0.50;;
57441;SDS011;43284;47.042;15.498;2023-04-03T09:58:40;0.60;;;0.50;;
57441;SDS011;43284;47.042;15.498;2023-04-03T10:01:23;0.75;;;0.57;;
57441;SDS011;43284;47.042;15.498;2023-04-03T10:06:29;1.13;;;0.52;;
57441;SDS011;43284;47.042;15.498;2023-04-03T10:09:00;3.05;;;0.85;;
57441;SDS011;43284;47.042;15.498;2023-04-03T10:11:29;1.23;;;0.70;;
57441;SDS011;43284;47.042;15.498;2023-04-03T10:13:59;0.80;;;0.63;;
57441;SDS011;43284;47.042;15.498;2023-04-03T10:16:38;0.73;;;0.73;;
57441;SDS011;43284;47.042;15.498;2023-04-03T10:19:29;1.40;;;0.70;;
57441;SDS011;43284;47.042;15.498;2023-04-03T10:27:37;1.23;;;0.60;;
57441;SDS011;43284;47.042;15.498;2023-04-03T10:30:22;0.90;;;0.80;;
57441;SDS011;43284;47.042;15.498;2023-04-03T10:41:13;1.13;;;0.80;;
57441;SDS011;43284;47.042;15.498;2023-04-03T10:44:13;0.55;;;0.40;;
57441;SDS011;43284;47.042;15.498;2023-04-03T10:46:45;0.60;;;0.60;;
57441;SDS011;43284;47.042;15.498;2023-04-03T10:49:26;0.55;;;0.55;;
57441;SDS011;43284;47.042;15.498;2023-04-03T10:54:56;0.70;;;0.60;;
57441;SDS011;43284;47.042;15.498;2023-04-03T10:57:24;3.45;;;0.60;;
57441;SDS011;43284;47.042;15.498;2023-04-03T10:59:59;2.28;;;0.68;;
57441;SDS011;43284;47.042;15.498;2023-04-03T11:02:47;0.73;;;0.55;;
57441;SDS011;43284;47.042;15.498;2023-04-03T11:08:28;1.00;;;0.73;;
57441;SDS011;43284;47.042;15.498;2023-04-03T11:10:57;2.28;;;0.70;;
57441;SDS011;43284;47.042;15.498;2023-04-03T11:16:31;0.85;;;0.60;;
57441;SDS011;43284;47.042;15.498;2023-04-03T11:19:16;0.68;;;0.68;;
57441;SDS011;43284;47.042;15.498;2023-04-03T11:21:57;0.68;;;0.50;;
57441;SDS011;43284;47.042;15.498;2023-04-03T11:24:31;0.55;;;0.50;;
57441;SDS011;43284;47.042;15.498;2023-04-03T11:26:59;0.40;;;0.40;;
57441;SDS011;43284;47.042;15.498;2023-04-03T11:29:35;0.75;;;0.60;;
57441;SDS011;43284;47.042;15.498;2023-04-03T11:32:44;2.10;;;0.80;;
57441;SDS011;43284;47.042;15.498;2023-04-03T11:34:57;0.95;;;0.60;;
57441;SDS011;43284;47.042;15.498;2023-04-03T11:37:39;0.75;;;0.52;;
57441;SDS011;43284;47.042;15.498;2023-04-03T11:42:42;0.60;;;0.60;;
57441;SDS011;43284;47.042;15.498;2023-04-03T11:45:16;1.50;;;0.73;;
57441;SDS011;43284;47.042;15.498;2023-04-03T11:47:56;0.98;;;0.88;;
57441;SDS011;43284;47.042;15.498;2023-04-03T11:50:30;1.05;;;0.65;;
57441;SDS011;43284;47.042;15.498;2023-04-03T12:08:38;1.17;;;0.50;;
57441;SDS011;43284;47.042;15.498;2023-04-03T12:13:37;1.65;;;0.73;;
57441;SDS011;43284;47.042;15.498;2023-04-03T12:21:19;0.80;;;0.70;;
57441;SDS011;43284;47.042;15.498;2023-04-03T12:46:21;1.67;;;0.90;;
57441;SDS011;43284;47.042;15.498;2023-04-03T12:48:52;1.23;;;0.70;;
57441;SDS011;43284;47.042;15.498;2023-04-03T12:53:49;1.83;;;0.90;;
57441;SDS011;43284;47.042;15.498;2023-04-03T12:56:24;1.08;;;0.80;;
57441;SDS011;43284;47.042;15.498;2023-04-03T12:58:53;1.55;;;1.00;;
57441;SDS011;43284;47.042;15.498;2023-04-03T13:01:21;2.55;;;1.00;;
57441;SDS011;43284;47.042;15.498;2023-04-03T13:03:49;0.98;;;0.80;;
57441;SDS011;43284;47.042;15.498;2023-04-03T13:06:22;1.45;;;0.70;;
57441;SDS011;43284;47.042;15.498;2023-04-03T13:08:59;2.53;;;0.82;;
57441;SDS011;43284;47.042;15.498;2023-04-03T13:11:36;3.45;;;0.90;;
57441;SDS011;43284;47.042;15.498;2023-04-03T13:14:14;2.45;;;1.00;;
57441;SDS011;43284;47.042;15.498;2023-04-03T13:16:51;0.80;;;0.80;;
57441;SDS011;43284;47.042;15.498;2023-04-03T13:19:39;1.17;;;0.80;;
57441;SDS011;43284;47.042;15.498;2023-04-03T13:22:22;1.10;;;0.70;;
57441;SDS011;43284;47.042;15.498;2023-04-03T13:24:49;0.93;;;0.80;;
57441;SDS011;43284;47.042;15.498;2023-04-03T13:27:17;1.75;;;0.85;;
57441;SDS011;43284;47.042;15.498;2023-04-03T13:29:43;1.65;;;0.70;;
57441;SDS011;43284;47.042;15.498;2023-04-03T13:32:17;2.90;;;0.80;;
57441;SDS011;43284;47.042;15.498;2023-04-03T13:34:46;1.73;;;0.93;;
57441;SDS011;43284;47.042;15.498;2023-04-03T13:42:32;2.80;;;0.75;;
57441;SDS011;43284;47.042;15.498;2023-04-03T13:47:46;1.85;;;1.00;;
57441;SDS011;43284;47.042;15.498;2023-04-03T13:52:43;1.58;;;0.80;;
57441;SDS011;43284;47.042;15.498;2023-04-03T13:57:50;1.05;;;0.80;;
57441;SDS011;43284;47.042;15.498;2023-04-03T14:00:19;1.13;;;0.70;;
57441;SDS011;43284;47.042;15.498;2023-04-03T14:03:12;0.93;;;0.85;;
57441;SDS011;43284;47.042;15.498;2023-04-03T14:05:51;1.70;;;1.10;;
57441;SDS011;43284;47.042;15.498;2023-04-03T14:08:17;0.98;;;0.88;;
57441;SDS011;43284;47.042;15.498;2023-04-03T14:10:43;1.38;;;0.90;;
57441;SDS011;43284;47.042;15.498;2023-04-03T14:13:15;2.90;;;0.80;;
57441;SDS011;43284;47.042;15.498;2023-04-03T14:15:43;2.33;;;0.80;;
57441;SDS011;43284;47.042;15.498;2023-04-03T14:18:13;1.85;;;1.15;;
57441;SDS011;43284;47.042;15.498;2023-04-03T14:20:41;1.50;;;0.77;;
57441;SDS011;43284;47.042;15.498;2023-04-03T14:23:07;2.28;;;1.05;;
57441;SDS011;43284;47.042;15.498;2023-04-03T14:25:32;1.30;;;0.80;;
57441;SDS011;43284;47.042;15.498;2023-04-03T14:27:58;0.85;;;0.60;;
57441;SDS011;43284;47.042;15.498;2023-04-03T14:30:29;1.40;;;0.80;;
57441;SDS011;43284;47.042;15.498;2023-04-03T14:32:57;1.20;;;0.80;;
57441;SDS011;43284;47.042;15.498;2023-04-03T14:35:24;1.33;;;0.95;;
57441;SDS011;43284;47.042;15.498;2023-04-03T14:37:50;1.98;;;0.90;;
57441;SDS011;43284;47.042;15.498;2023-04-03T14:40:19;3.28;;;1.50;;
57441;SDS011;43284;47.042;15.498;2023-04-03T14:42:50;5.38;;;1.00;;
57441;SDS011;43284;47.042;15.498;2023-04-03T14:45:16;2.40;;;1.20;;
57441;SDS011;43284;47.042;15.498;2023-04-03T14:47:53;1.85;;;0.90;;
57441;SDS011;43284;47.042;15.498;2023-04-03T14:50:22;1.70;;;1.00;;
57441;SDS011;43284;47.042;15.498;2023-04-03T14:52:50;3.28;;;1.02;;
57441;SDS011;43284;47.042;15.498;2023-04-03T14:55:17;2.17;;;0.90;;
57441;SDS011;43284;47.042;15.498;2023-04-03T14:57:45;1.30;;;1.00;;
57441;SDS011;43284;47.042;15.498;2023-04-03T15:00:18;2.00;;;1.15;;
57441;SDS011;43284;47.042;15.498;2023-04-03T15:02:45;1.80;;;1.05;;
57441;SDS011;43284;47.042;15.498;2023-04-03T15:05:12;2.25;;;1.02;;
57441;SDS011;43284;47.042;15.498;2023-04-03T15:07:43;1.63;;;0.90;;
57441;SDS011;43284;47.042;15.498;2023-04-03T15:10:22;1.80;;;1.38;;
57441;SDS011;43284;47.042;15.498;2023-04-03T15:12:50;1.52;;;1.10;;
57441;SDS011;43284;47.042;15.498;2023-04-03T15:15:17;2.88;;;1.20;;
57441;SDS011;43284;47.042;15.498;2023-04-03T15:17:44;1.67;;;1.00;;
57441;SDS011;43284;47.042;15.498;2023-04-03T15:20:16;1.75;;;1.10;;
57441;SDS011;43284;47.042;15.498;2023-04-03T15:22:43;1.90;;;1.20;;
57441;SDS011;43284;47.042;15.498;2023-04-03T15:25:09;1.98;;;1.42;;
57441;SDS011;43284;47.042;15.498;2023-04-03T15:27:35;1.33;;;1.08;;
57441;SDS011;43284;47.042;15.498;2023-04-03T15:30:03;2.60;;;1.20;;
57441;SDS011;43284;47.042;15.498;2023-04-03T15:32:30;1.90;;;1.00;;
57441;SDS011;43284;47.042;15.498;2023-04-03T15:34:56;3.35;;;1.17;;
57441;SDS011;43284;47.042;15.498;2023-04-03T15:37:22;3.60;;;1.08;;
57441;SDS011;43284;47.042;15.498;2023-04-03T15:39:47;1.00;;;0.90;;
57441;SDS011;43284;47.042;15.498;2023-04-03T15:42:13;1.17;;;1.00;;
57441;SDS011;43284;47.042;15.498;2023-04-03T15:44:38;3.75;;;1.15;;
57441;SDS011;43284;47.042;15.498;2023-04-03T15:47:04;1.60;;;1.30;;
57441;SDS011;43284;47.042;15.498;2023-04-03T15:49:30;1.98;;;0.90;;
57441;SDS011;43284;47.042;15.498;2023-04-03T15:51:57;1.50;;;1.20;;
57441;SDS011;43284;47.042;15.498;2023-04-03T15:54:23;1.95;;;1.00;;
57441;SDS011;43284;47.042;15.498;2023-04-03T15:56:50;1.23;;;1.02;;
57441;SDS011;43284;47.042;15.498;2023-04-03T15:59:16;2.42;;;1.20;;
57441;SDS011;43284;47.042;15.498;2023-04-03T16:01:41;1.95;;;1.10;;
57441;SDS011;43284;47.042;15.498;2023-04-03T16:04:07;1.30;;;1.20;;
57441;SDS011;43284;47.042;15.498;2023-04-03T16:06:34;1.23;;;1.00;;
57441;SDS011;43284;47.042;15.498;2023-04-03T16:09:00;3.45;;;1.60;;
57441;SDS011;43284;47.042;15.498;2023-04-03T16:11:26;2.92;;;1.17;;
57441;SDS011;43284;47.042;15.498;2023-04-03T16:13:52;5.80;;;1.90;;
57441;SDS011;43284;47.042;15.498;2023-04-03T16:16:19;1.92;;;1.10;;
57441;SDS011;43284;47.042;15.498;2023-04-03T16:18:45;2.83;;;1.15;;
57441;SDS011;43284;47.042;15.498;2023-04-03T16:21:12;1.80;;;1.40;;
57441;SDS011;43284;47.042;15.498;2023-04-03T16:23:40;3.50;;;1.17;;
57441;SDS011;43284;47.042;15.498;2023-04-03T16:26:06;2.65;;;1.23;;
57441;SDS011;43284;47.042;15.498;2023-04-03T16:28:31;2.13;;;1.30;;
57441;SDS011;43284;47.042;15.498;2023-04-03T16:30:57;2.85;;;1.77;;
57441;SDS011;43284;47.042;15.498;2023-04-03T16:33:23;3.63;;;1.38;;
57441;SDS011;43284;47.042;15.498;2023-04-03T16:35:52;1.83;;;1.20;;
57441;SDS011;43284;47.042;15.498;2023-04-03T16:38:18;2.65;;;1.30;;
57441;SDS011;43284;47.042;15.498;2023-04-03T16:40:44;1.88;;;1.23;;
57441;SDS011;43284;47.042;15.498;2023-04-03T16:43:10;1.63;;;1.13;;